Time;durP1;ratioP1;P1;durP2;ratioP2;P2;SDS_P1;SDS_P2;PMS_P1;PMS_P2;Temp;Humidity;BMP_temperature;BMP_pressure;BME280_temperature;BME280_humidity;BME280_pressure;Samples;Min_cycle;Max_cycle;Signal;HPM_P1;HPM_P2
2023/07/31 00:01:55;;;;;;;;;;;26.60;52.40;;;;;;5041974;28;87302;-49
2023/07/31 00:04:20;;;;;;;;;;;26.60;52.40;;;;;;5043202;27;88236;-54
2023/07/31 00:06:46;;;;;;;;;;;26.70;52.50;;;;;;5043476;28;87121;-50
2023/07/31 00:09:11;;;;;;;;;;;26.60;52.50;;;;;;5043245;28;87824;-50
2023/07/31 00:11:37;;;;;;;;;;;26.60;52.50;;;;;;5043432;28;87318;-51
2023/07/31 00:14:02;;;;;;;;;;;26.60;52.50;;;;;;5043405;28;87228;-52
2023/07/31 00:16:28;;;;;;;;;;;26.60;52.50;;;;;;5041949;28;89183;-49
2023/07/31 00:18:53;;;;;;;;;;;26.60;52.50;;;;;;5042589;27;88932;-53
2023/07/31 00:21:19;;;;;;;;;;;26.60;52.60;;;;;;5043247;28;88403;-49
2023/07/31 00:23:44;;;;;;;;;;;26.60;52.60;;;;;;5042706;28;87994;-50
2023/07/31 00:26:10;;;;;;;;;;;26.60;52.60;;;;;;5043074;28;86996;-53
2023/07/31 00:28:35;;;;;;;;;;;26.50;52.60;;;;;;5043133;28;87436;-50
2023/07/31 00:31:03;;;;;;;;;;;26.50;52.70;;;;;;5041903;28;88290;-52
2023/07/31 00:33:29;;;;;;;;;;;26.50;52.60;;;;;;5040487;28;87108;-47
2023/07/31 00:35:55;;;;;;;;;;;26.50;52.70;;;;;;5043728;27;86663;-50
2023/07/31 00:38:20;;;;;;;;;;;26.50;52.70;;;;;;5042535;28;88196;-50
2023/07/31 00:40:46;;;;;;;;;;;26.50;52.80;;;;;;5045876;28;87009;-48
2023/07/31 00:43:11;;;;;;;;;;;26.50;52.80;;;;;;5041849;28;89305;-51
2023/07/31 00:45:37;;;;;;;;;;;26.50;52.80;;;;;;5041695;28;87117;-51
2023/07/31 00:48:02;;;;;;;;;;;26.50;52.90;;;;;;5041751;28;87248;-50
2023/07/31 00:50:28;;;;;;;;;;;26.40;52.80;;;;;;5040819;28;87979;-52
2023/07/31 00:52:54;;;;;;;;;;;26.40;52.80;;;;;;5042194;28;87036;-51
2023/07/31 00:55:21;;;;;;;;;;;26.40;52.80;;;;;;5041847;28;87383;-48
2023/07/31 00:57:47;;;;;;;;;;;26.40;52.80;;;;;;5042289;28;88095;-50
2023/07/31 01:00:13;;;;;;;;;;;26.40;52.90;;;;;;5043117;28;86875;-51
2023/07/31 01:02:39;;;;;;;;;;;26.40;52.90;;;;;;5042199;28;87201;-50
2023/07/31 01:05:04;;;;;;;;;;;26.30;52.80;;;;;;5042760;27;87387;-52
2023/07/31 01:07:32;;;;;;;;;;;26.30;52.80;;;;;;5041902;28;88049;-52
2023/07/31 01:09:58;;;;;;;;;;;26.40;52.90;;;;;;5042070;28;88215;-50
2023/07/31 01:12:24;;;;;;;;;;;26.30;52.90;;;;;;5042453;28;87362;-50
2023/07/31 01:15:02;;;;;;;;;;;26.30;52.90;;;;;;5042191;28;88759;-50
2023/07/31 01:17:28;;;;;;;;;;;26.30;53.00;;;;;;5037739;28;88032;-48
2023/07/31 01:19:55;;;;;;;;;;;26.30;53.10;;;;;;5041272;27;87160;-50
2023/07/31 01:22:21;;;;;;;;;;;26.30;53.00;;;;;;5045012;28;87597;-48
2023/07/31 01:25:05;;;;;;;;;;;26.30;53.00;;;;;;5042318;27;86508;-53
2023/07/31 01:27:35;;;;;;;;;;;26.30;53.10;;;;;;5041896;28;87163;-48
2023/07/31 01:30:17;;;;;;;;;;;26.20;53.10;;;;;;5041706;28;89526;-51
2023/07/31 01:32:43;;;;;;;;;;;26.20;53.00;;;;;;5038863;28;88292;-51
2023/07/31 01:35:09;;;;;;;;;;;26.20;53.10;;;;;;5038062;27;89789;-49
2023/07/31 01:37:34;;;;;;;;;;;26.20;53.10;;;;;;5037839;28;87588;-49
2023/07/31 01:40:00;;;;;;;;;;;26.20;53.10;;;;;;5042082;28;87234;-52
2023/07/31 01:42:26;;;;;;;;;;;26.20;53.10;;;;;;5042083;28;87098;-50
2023/07/31 01:44:51;;;;;;;;;;;26.20;53.70;;;;;;5044577;28;88048;-48
2023/07/31 01:47:16;;;;;;;;;;;26.10;53.00;;;;;;5041170;28;87680;-49
2023/07/31 01:49:42;;;;;;;;;;;26.20;53.10;;;;;;5039320;27;88624;-49
2023/07/31 01:52:07;;;;;;;;;;;26.10;53.10;;;;;;5040339;28;87303;-48
2023/07/31 01:54:33;;;;;;;;;;;26.10;53.10;;;;;;5042034;28;87405;-49
2023/07/31 01:56:59;;;;;;;;;;;26.10;53.10;;;;;;5041038;28;88921;-51
2023/07/31 01:59:24;;;;;;;;;;;26.10;53.20;;;;;;5042045;28;87112;-51
2023/07/31 02:01:50;;;;;;;;;;;26.10;53.20;;;;;;5041347;28;87515;-51
2023/07/31 02:04:15;;;;;;;;;;;26.10;53.30;;;;;;5040815;28;88002;-50
2023/07/31 02:06:41;;;;;;;;;;;26.00;53.20;;;;;;5046842;27;88286;-53
2023/07/31 02:09:06;;;;;;;;;;;26.00;53.30;;;;;;5044851;28;88011;-50
2023/07/31 02:11:32;;;;;;;;;;;26.00;53.30;;;;;;5045361;28;87184;-48
2023/07/31 02:13:57;;;;;;;;;;;26.00;53.40;;;;;;5045533;28;86550;-47
2023/07/31 02:16:22;;;;;;;;;;;26.00;53.40;;;;;;5044299;28;87904;-50
2023/07/31 02:18:48;;;;;;;;;;;26.00;53.40;;;;;;5043939;28;87111;-53
2023/07/31 02:21:13;;;;;;;;;;;26.00;53.40;;;;;;5039380;28;87853;-51
2023/07/31 02:23:39;;;;;;;;;;;26.00;53.40;;;;;;5044865;28;88321;-51
2023/07/31 02:26:04;;;;;;;;;;;26.00;53.50;;;;;;5045167;28;87125;-51
2023/07/31 02:28:30;;;;;;;;;;;25.90;53.40;;;;;;5046200;28;90572;-49
2023/07/31 02:30:55;;;;;;;;;;;25.90;53.30;;;;;;5045111;28;87045;-51
2023/07/31 02:33:21;;;;;;;;;;;25.90;53.40;;;;;;5042554;27;89688;-49
2023/07/31 02:35:46;;;;;;;;;;;25.90;53.40;;;;;;5044040;27;88376;-50
2023/07/31 02:38:12;;;;;;;;;;;25.90;53.40;;;;;;5045581;28;86301;-51
2023/07/31 02:40:39;;;;;;;;;;;25.90;53.40;;;;;;5045084;28;86909;-52
2023/07/31 02:43:04;;;;;;;;;;;25.90;53.40;;;;;;5044379;28;87964;-53
2023/07/31 02:45:30;;;;;;;;;;;25.80;53.40;;;;;;5044243;28;87968;-52
2023/07/31 02:47:55;;;;;;;;;;;25.80;53.40;;;;;;5044075;28;88942;-48
2023/07/31 02:50:21;;;;;;;;;;;25.80;53.40;;;;;;5042638;27;88066;-52
2023/07/31 02:52:46;;;;;;;;;;;25.80;53.50;;;;;;5044132;28;87008;-47
2023/07/31 02:55:12;;;;;;;;;;;25.80;53.40;;;;;;5044201;28;88116;-48
2023/07/31 02:57:37;;;;;;;;;;;25.80;53.40;;;;;;5044498;28;87155;-52
2023/07/31 03:00:06;;;;;;;;;;;25.80;53.50;;;;;;5044616;28;87099;-50
2023/07/31 03:02:31;;;;;;;;;;;25.80;53.50;;;;;;5043840;28;89212;-50
2023/07/31 03:04:57;;;;;;;;;;;25.80;53.50;;;;;;5044381;27;87212;-47
2023/07/31 03:07:22;;;;;;;;;;;25.70;53.50;;;;;;5044173;27;87467;-54
2023/07/31 03:09:48;;;;;;;;;;;25.70;53.40;;;;;;5043137;28;89332;-53
2023/07/31 03:12:13;;;;;;;;;;;25.70;53.50;;;;;;5047234;28;87526;-49
2023/07/31 03:14:39;;;;;;;;;;;25.70;53.40;;;;;;5043922;28;87994;-48
2023/07/31 03:17:04;;;;;;;;;;;25.70;53.40;;;;;;5042669;27;87163;-48
2023/07/31 03:19:31;;;;;;;;;;;25.70;53.50;;;;;;5041145;28;89871;-49
2023/07/31 03:21:56;;;;;;;;;;;25.70;53.50;;;;;;5039097;27;89912;-48
2023/07/31 03:24:22;;;;;;;;;;;25.70;53.50;;;;;;5040661;28;88105;-53
2023/07/31 03:26:47;;;;;;;;;;;25.70;53.60;;;;;;5038820;28;87702;-52
2023/07/31 03:29:13;;;;;;;;;;;25.70;53.60;;;;;;5043949;28;88170;-50
2023/07/31 03:31:38;;;;;;;;;;;25.60;53.50;;;;;;5046320;27;87159;-51
2023/07/31 03:34:04;;;;;;;;;;;25.60;53.60;;;;;;5039333;28;89031;-50
2023/07/31 03:36:29;;;;;;;;;;;25.60;53.60;;;;;;5041474;27;87289;-49
2023/07/31 03:38:55;;;;;;;;;;;25.60;53.60;;;;;;5043776;28;88069;-52
2023/07/31 03:41:20;;;;;;;;;;;25.60;53.60;;;;;;5043707;27;88156;-51
2023/07/31 03:43:55;;;;;;;;;;;25.60;53.60;;;;;;5040774;28;87203;-51
2023/07/31 03:46:21;;;;;;;;;;;25.60;53.70;;;;;;5036549;28;88682;-51
2023/07/31 03:48:47;;;;;;;;;;;25.60;53.70;;;;;;5039927;28;87245;-49
2023/07/31 03:51:13;;;;;;;;;;;25.50;53.70;;;;;;5044255;27;86560;-50
2023/07/31 03:53:38;;;;;;;;;;;25.50;53.70;;;;;;5043085;28;87848;-51
2023/07/31 03:56:04;;;;;;;;;;;25.50;53.60;;;;;;5038918;28;86879;-48
2023/07/31 03:58:29;;;;;;;;;;;25.50;53.70;;;;;;5043058;28;87903;-49
2023/07/31 04:00:55;;;;;;;;;;;25.50;53.70;;;;;;5042141;27;88093;-50
2023/07/31 04:03:20;;;;;;;;;;;25.50;53.70;;;;;;5039474;28;87565;-51
2023/07/31 04:05:46;;;;;;;;;;;25.50;53.80;;;;;;5039678;27;87376;-49
2023/07/31 04:08:11;;;;;;;;;;;25.50;53.80;;;;;;5043861;27;87789;-51
2023/07/31 04:10:37;;;;;;;;;;;25.50;53.80;;;;;;5040697;28;87809;-51
2023/07/31 04:13:02;;;;;;;;;;;25.50;53.80;;;;;;5039800;28;87385;-52
2023/07/31 04:15:28;;;;;;;;;;;25.50;53.80;;;;;;5042278;28;87478;-48
2023/07/31 04:17:53;;;;;;;;;;;25.50;53.80;;;;;;5043849;27;88731;-52
2023/07/31 04:20:19;;;;;;;;;;;25.40;53.80;;;;;;5038939;27;88965;-53
2023/07/31 04:22:44;;;;;;;;;;;25.40;53.80;;;;;;5039110;27;88100;-51
2023/07/31 04:25:10;;;;;;;;;;;25.40;53.90;;;;;;5043275;28;88393;-48
2023/07/31 04:27:35;;;;;;;;;;;25.40;53.80;;;;;;5043886;27;88237;-52
2023/07/31 04:30:01;;;;;;;;;;;25.40;53.90;;;;;;5040381;28;87851;-52
2023/07/31 04:32:26;;;;;;;;;;;25.40;54.00;;;;;;5039579;28;87996;-50
2023/07/31 04:34:52;;;;;;;;;;;25.40;53.90;;;;;;5042175;28;89691;-49
2023/07/31 04:37:17;;;;;;;;;;;25.40;53.90;;;;;;5047599;27;87125;-50
2023/07/31 04:39:43;;;;;;;;;;;25.40;53.90;;;;;;5039898;28;88976;-54
2023/07/31 04:42:08;;;;;;;;;;;25.40;54.00;;;;;;5039838;28;88626;-54
2023/07/31 04:44:34;;;;;;;;;;;25.40;54.00;;;;;;5038552;27;87369;-50
2023/07/31 04:47:01;;;;;;;;;;;25.30;53.90;;;;;;5038985;27;89185;-52
2023/07/31 04:49:27;;;;;;;;;;;25.30;53.90;;;;;;5038870;28;88014;-51
2023/07/31 04:51:52;;;;;;;;;;;25.30;53.90;;;;;;5040562;27;87493;-53
2023/07/31 04:54:18;;;;;;;;;;;25.40;54.00;;;;;;5042459;28;88133;-50
2023/07/31 04:56:43;;;;;;;;;;;25.30;54.00;;;;;;5043302;27;88575;-52
2023/07/31 04:59:09;;;;;;;;;;;25.30;54.00;;;;;;5042269;28;87450;-50
2023/07/31 05:01:34;;;;;;;;;;;25.30;54.00;;;;;;5040171;28;87240;-49
2023/07/31 05:04:00;;;;;;;;;;;25.30;54.00;;;;;;5042451;28;87737;-49
2023/07/31 05:06:25;;;;;;;;;;;25.30;54.00;;;;;;5042084;27;88326;-50
2023/07/31 05:08:51;;;;;;;;;;;25.30;54.00;;;;;;5040316;28;87196;-52
2023/07/31 05:11:16;;;;;;;;;;;25.30;54.10;;;;;;5035490;28;88172;-49
2023/07/31 05:13:42;;;;;;;;;;;25.20;54.00;;;;;;5041559;28;88389;-49
2023/07/31 05:16:07;;;;;;;;;;;25.20;54.00;;;;;;5042834;27;87594;-51
2023/07/31 05:18:33;;;;;;;;;;;25.20;54.10;;;;;;5041172;28;87793;-50
2023/07/31 05:20:58;;;;;;;;;;;25.20;54.10;;;;;;5038205;27;87414;-50
2023/07/31 05:23:24;;;;;;;;;;;25.20;54.10;;;;;;5038057;28;87438;-51
2023/07/31 05:25:49;;;;;;;;;;;25.20;54.10;;;;;;5037422;27;88230;-53
2023/07/31 05:28:15;;;;;;;;;;;25.20;54.10;;;;;;5039470;28;86458;-52
2023/07/31 05:30:40;;;;;;;;;;;25.20;54.10;;;;;;5039574;28;88089;-52
2023/07/31 05:33:06;;;;;;;;;;;25.20;54.00;;;;;;5039949;28;88340;-48
2023/07/31 05:35:31;;;;;;;;;;;25.20;54.00;;;;;;5040499;27;88285;-48
2023/07/31 05:37:57;;;;;;;;;;;25.20;54.10;;;;;;5039876;27;88388;-50
2023/07/31 05:40:22;;;;;;;;;;;25.20;54.10;;;;;;5038894;28;89202;-47
2023/07/31 05:42:48;;;;;;;;;;;25.20;54.10;;;;;;5042062;28;87707;-51
2023/07/31 05:45:13;;;;;;;;;;;25.20;54.10;;;;;;5040812;27;88257;-54
2023/07/31 05:47:39;;;;;;;;;;;25.10;54.10;;;;;;5039268;28;88815;-50
2023/07/31 05:50:05;;;;;;;;;;;25.10;54.10;;;;;;5036599;28;87267;-53
2023/07/31 05:52:30;;;;;;;;;;;25.10;54.10;;;;;;5041771;27;87790;-51
2023/07/31 05:54:56;;;;;;;;;;;25.10;54.10;;;;;;5040724;27;87752;-53
2023/07/31 05:57:21;;;;;;;;;;;25.10;54.10;;;;;;5038951;28;87473;-50
2023/07/31 05:59:47;;;;;;;;;;;25.10;54.20;;;;;;5035698;28;89131;-49
2023/07/31 06:02:13;;;;;;;;;;;25.00;54.20;;;;;;5044494;28;87140;-49
2023/07/31 06:04:38;;;;;;;;;;;25.10;54.30;;;;;;5039413;27;89335;-49
2023/07/31 06:07:04;;;;;;;;;;;25.00;54.30;;;;;;5036673;28;87253;-52
2023/07/31 06:09:29;;;;;;;;;;;25.10;54.40;;;;;;5040853;28;88776;-50
2023/07/31 06:11:55;;;;;;;;;;;25.00;54.30;;;;;;5040075;27;88209;-50
2023/07/31 06:14:20;;;;;;;;;;;25.10;54.40;;;;;;5038404;28;87318;-49
2023/07/31 06:16:46;;;;;;;;;;;25.00;54.30;;;;;;5034635;28;88292;-49
2023/07/31 06:19:11;;;;;;;;;;;25.00;54.30;;;;;;5038328;28;87927;-48
2023/07/31 06:21:37;;;;;;;;;;;25.00;54.40;;;;;;5040308;27;87688;-49
2023/07/31 06:24:03;;;;;;;;;;;25.00;54.30;;;;;;5040724;28;89894;-52
2023/07/31 06:26:28;;;;;;;;;;;25.00;54.40;;;;;;5035901;28;87007;-48
2023/07/31 06:28:54;;;;;;;;;;;25.00;54.30;;;;;;5041282;28;87430;-49
2023/07/31 06:31:22;;;;;;;;;;;25.00;54.30;;;;;;5041758;27;88124;-49
2023/07/31 06:33:51;;;;;;;;;;;25.00;54.30;;;;;;5037908;28;87750;-50
2023/07/31 06:36:16;;;;;;;;;;;25.00;54.30;;;;;;5036042;28;87423;-48
2023/07/31 06:38:42;;;;;;;;;;;25.00;54.30;;;;;;5039872;27;87992;-50
2023/07/31 06:41:07;;;;;;;;;;;25.00;54.40;;;;;;5042678;27;86530;-51
2023/07/31 06:43:33;;;;;;;;;;;24.90;54.30;;;;;;5037621;28;87164;-50
2023/07/31 06:46:04;;;;;;;;;;;24.90;54.30;;;;;;5037939;28;88292;-54
2023/07/31 06:48:29;;;;;;;;;;;24.90;54.30;;;;;;5040859;28;88210;-52
2023/07/31 06:50:55;;;;;;;;;;;24.90;54.30;;;;;;5039161;27;91286;-48
2023/07/31 06:53:20;;;;;;;;;;;24.90;54.30;;;;;;5041837;27;87339;-52
2023/07/31 06:55:48;;;;;;;;;;;24.90;54.30;;;;;;5039886;28;87737;-48
2023/07/31 06:58:13;;;;;;;;;;;24.90;54.90;;;;;;5044300;28;88088;-49
2023/07/31 07:00:39;;;;;;;;;;;24.90;54.30;;;;;;5044581;27;87096;-49
2023/07/31 07:03:04;;;;;;;;;;;24.90;54.20;;;;;;5042428;28;87657;-48
2023/07/31 07:05:30;;;;;;;;;;;24.90;54.30;;;;;;5037210;28;87287;-53
2023/07/31 07:07:55;;;;;;;;;;;24.90;54.30;;;;;;5047153;27;87235;-49
2023/07/31 07:10:21;;;;;;;;;;;24.90;54.20;;;;;;5042486;27;89198;-51
2023/07/31 07:12:48;;;;;;;;;;;24.90;54.30;;;;;;5040841;28;89868;-50
2023/07/31 07:15:14;;;;;;;;;;;24.90;54.20;;;;;;5037391;27;88301;-49
2023/07/31 07:17:39;;;;;;;;;;;24.90;54.20;;;;;;5043971;28;88068;-50
2023/07/31 07:20:05;;;;;;;;;;;24.90;54.20;;;;;;5041552;27;87119;-50
2023/07/31 07:22:30;;;;;;;;;;;24.90;54.20;;;;;;5041591;27;88232;-52
2023/07/31 07:24:56;;;;;;;;;;;24.90;54.10;;;;;;5037869;28;87221;-50
2023/07/31 07:27:21;;;;;;;;;;;24.90;54.10;;;;;;5046686;28;86976;-49
2023/07/31 07:29:47;;;;;;;;;;;24.90;54.10;;;;;;5044543;27;87344;-50
2023/07/31 07:32:12;;;;;;;;;;;24.90;54.10;;;;;;5040867;28;87781;-53
2023/07/31 07:34:38;;;;;;;;;;;24.90;54.10;;;;;;5036694;28;88832;-52
2023/07/31 07:37:04;;;;;;;;;;;24.90;54.10;;;;;;5042869;27;91792;-49
2023/07/31 07:39:29;;;;;;;;;;;24.90;54.10;;;;;;5043483;27;87248;-48
2023/07/31 07:41:55;;;;;;;;;;;24.90;54.10;;;;;;5041058;28;88499;-48
2023/07/31 07:44:20;;;;;;;;;;;24.90;54.10;;;;;;5038935;28;88179;-50
2023/07/31 07:46:46;;;;;;;;;;;24.90;54.20;;;;;;5043920;28;87367;-53
2023/07/31 07:49:11;;;;;;;;;;;24.90;54.20;;;;;;5045986;27;87251;-51
2023/07/31 07:51:37;;;;;;;;;;;24.80;54.10;;;;;;5039957;28;87211;-51
2023/07/31 07:54:03;;;;;;;;;;;24.80;54.10;;;;;;5039115;27;87316;-48
2023/07/31 07:56:28;;;;;;;;;;;24.80;54.10;;;;;;5043458;28;87647;-49
2023/07/31 07:58:54;;;;;;;;;;;24.80;54.10;;;;;;5043114;27;87023;-52
2023/07/31 08:01:20;;;;;;;;;;;24.80;54.10;;;;;;5040479;28;88048;-49
2023/07/31 08:03:46;;;;;;;;;;;24.80;54.10;;;;;;5036557;28;88251;-50
2023/07/31 08:06:11;;;;;;;;;;;24.80;54.10;;;;;;5042843;28;87129;-48
2023/07/31 08:08:37;;;;;;;;;;;24.80;54.10;;;;;;5041556;27;87395;-50
2023/07/31 08:11:02;;;;;;;;;;;24.80;54.20;;;;;;5043199;28;88124;-51
2023/07/31 08:13:28;;;;;;;;;;;24.80;54.20;;;;;;5039794;28;87291;-52
2023/07/31 08:15:54;;;;;;;;;;;24.80;54.10;;;;;;5043243;28;87995;-49
2023/07/31 08:18:19;;;;;;;;;;;24.80;54.10;;;;;;5043002;27;87326;-49
2023/07/31 08:20:45;;;;;;;;;;;24.80;54.00;;;;;;5038265;28;87588;-51
2023/07/31 08:23:10;;;;;;;;;;;24.80;54.00;;;;;;5039247;27;88045;-49
2023/07/31 08:25:36;;;;;;;;;;;24.80;54.00;;;;;;5042471;28;88385;-50
2023/07/31 08:28:03;;;;;;;;;;;24.80;54.00;;;;;;5041604;27;88831;-50
2023/07/31 08:30:28;;;;;;;;;;;24.80;53.90;;;;;;5037645;27;87144;-51
2023/07/31 08:32:53;;;;;;;;;;;24.80;54.60;;;;;;5045210;28;87219;-50
2023/07/31 08:35:19;;;;;;;;;;;24.80;54.00;;;;;;5042747;27;88117;-52
2023/07/31 08:37:44;;;;;;;;;;;24.80;54.00;;;;;;5039184;27;89508;-53
2023/07/31 08:40:10;;;;;;;;;;;24.80;54.00;;;;;;5039033;28;87127;-52
2023/07/31 08:42:46;;;;;;;;;;;24.80;53.90;;;;;;5042923;28;87152;-54
2023/07/31 08:45:20;;;;;;;;;;;24.80;53.90;;;;;;5043023;27;87705;-52
2023/07/31 08:47:47;;;;;;;;;;;24.80;54.00;;;;;;5040239;27;87490;-49
2023/07/31 08:50:13;;;;;;;;;;;24.80;54.00;;;;;;5034887;28;89785;-51
2023/07/31 08:52:39;;;;;;;;;;;24.80;53.90;;;;;;5042108;27;87131;-48
2023/07/31 08:55:05;;;;;;;;;;;24.80;53.90;;;;;;5045327;27;87812;-49
2023/07/31 08:57:31;;;;;;;;;;;24.80;53.90;;;;;;5039099;28;87567;-53
2023/07/31 08:59:57;;;;;;;;;;;24.80;53.90;;;;;;5038236;28;87377;-49
2023/07/31 09:02:25;;;;;;;;;;;24.80;53.90;;;;;;5041769;28;89735;-51
2023/07/31 09:04:50;;;;;;;;;;;24.80;53.90;;;;;;5039942;27;87074;-53
2023/07/31 09:07:16;;;;;;;;;;;24.70;53.80;;;;;;5038639;28;87740;-49
2023/07/31 09:09:41;;;;;;;;;;;24.80;53.80;;;;;;5042053;27;88054;-49
2023/07/31 09:12:07;;;;;;;;;;;24.80;53.80;;;;;;5043546;27;87306;-48
2023/07/31 09:14:33;;;;;;;;;;;24.80;53.80;;;;;;5037912;27;88220;-49
2023/07/31 09:17:02;;;;;;;;;;;24.80;53.70;;;;;;5042013;27;87940;-50
2023/07/31 09:19:37;;;;;;;;;;;24.80;53.80;;;;;;5037767;27;87421;-51
2023/07/31 09:22:04;;;;;;;;;;;24.80;53.80;;;;;;5036354;28;88056;-55
2023/07/31 09:24:30;;;;;;;;;;;24.80;53.80;;;;;;5038830;27;87280;-54
2023/07/31 09:26:56;;;;;;;;;;;24.80;53.80;;;;;;5037111;28;87187;-54
2023/07/31 09:29:22;;;;;;;;;;;24.80;53.80;;;;;;5041894;28;88140;-48
2023/07/31 09:31:48;;;;;;;;;;;24.80;53.80;;;;;;5042497;27;86462;-51
2023/07/31 09:34:13;;;;;;;;;;;24.80;53.80;;;;;;5039037;27;88350;-51
2023/07/31 09:36:40;;;;;;;;;;;24.80;53.70;;;;;;5040706;28;88218;-54
2023/07/31 09:39:08;;;;;;;;;;;24.80;53.70;;;;;;5041684;27;88135;-48
2023/07/31 09:41:37;;;;;;;;;;;24.80;53.70;;;;;;5041727;27;88040;-49
2023/07/31 09:44:02;;;;;;;;;;;24.80;53.70;;;;;;5037120;28;87279;-53
2023/07/31 09:46:28;;;;;;;;;;;24.80;53.70;;;;;;5036876;28;87459;-49
2023/07/31 09:49:02;;;;;;;;;;;24.80;53.70;;;;;;5041227;28;88123;-47
2023/07/31 09:51:28;;;;;;;;;;;24.80;53.70;;;;;;5040098;27;87332;-53
2023/07/31 09:53:53;;;;;;;;;;;24.80;53.60;;;;;;5038200;27;88877;-50
2023/07/31 09:56:21;;;;;;;;;;;24.80;53.70;;;;;;5037285;28;87749;-52
2023/07/31 09:58:47;;;;;;;;;;;24.80;53.60;;;;;;5044787;28;87210;-52
2023/07/31 10:01:13;;;;;;;;;;;24.80;53.70;;;;;;5040652;27;87902;-50
2023/07/31 10:03:39;;;;;;;;;;;24.80;53.70;;;;;;5037551;28;88331;-52
2023/07/31 10:06:07;;;;;;;;;;;24.80;53.60;;;;;;5037188;28;88342;-49
2023/07/31 10:08:34;;;;;;;;;;;24.80;53.60;;;;;;5037923;27;88412;-49
2023/07/31 10:11:00;;;;;;;;;;;24.80;53.60;;;;;;5038300;28;87150;-52
2023/07/31 10:13:27;;;;;;;;;;;24.80;53.60;;;;;;5037973;28;88474;-50
2023/07/31 10:15:53;;;;;;;;;;;24.80;53.60;;;;;;5036562;28;88210;-50
2023/07/31 10:18:19;;;;;;;;;;;24.80;53.50;;;;;;5041258;27;87554;-51
2023/07/31 10:20:45;;;;;;;;;;;24.80;53.50;;;;;;5040240;28;88028;-50
2023/07/31 10:23:11;;;;;;;;;;;24.90;53.50;;;;;;5037922;27;87515;-52
2023/07/31 10:25:38;;;;;;;;;;;24.90;53.50;;;;;;5041101;28;89042;-53
2023/07/31 10:28:03;;;;;;;;;;;24.80;53.50;;;;;;5045175;27;89021;-51
2023/07/31 10:30:30;;;;;;;;;;;24.80;53.50;;;;;;5042685;28;88320;-47
2023/07/31 10:32:55;;;;;;;;;;;24.90;53.50;;;;;;5038763;28;87184;-49
2023/07/31 10:35:24;;;;;;;;;;;24.90;53.40;;;;;;5044207;28;88067;-54
2023/07/31 10:37:50;;;;;;;;;;;24.90;53.40;;;;;;5042804;27;87256;-53
2023/07/31 10:40:16;;;;;;;;;;;24.90;53.40;;;;;;5041332;27;88666;-49
2023/07/31 10:42:49;;;;;;;;;;;24.90;53.40;;;;;;5038418;28;88446;-51
2023/07/31 10:45:24;;;;;;;;;;;24.90;53.40;;;;;;5041695;28;89032;-51
2023/07/31 10:47:57;;;;;;;;;;;24.90;53.40;;;;;;5041766;28;89449;-52
2023/07/31 10:50:23;;;;;;;;;;;24.90;53.40;;;;;;5042216;27;87149;-51
2023/07/31 10:52:54;;;;;;;;;;;24.90;53.40;;;;;;5038369;28;87967;-50
2023/07/31 10:55:30;;;;;;;;;;;24.90;53.40;;;;;;5043313;27;88013;-53
2023/07/31 10:57:57;;;;;;;;;;;24.90;54.00;;;;;;5043854;27;87830;-49
2023/07/31 11:00:23;;;;;;;;;;;24.90;53.40;;;;;;5041610;28;88164;-51
2023/07/31 11:03:02;;;;;;;;;;;24.90;53.30;;;;;;5038886;28;88286;-48
2023/07/31 11:05:46;;;;;;;;;;;24.90;53.30;;;;;;5043345;28;87163;-51
2023/07/31 11:08:14;;;;;;;;;;;25.00;53.30;;;;;;5039621;28;88379;-52
2023/07/31 11:10:40;;;;;;;;;;;25.00;53.20;;;;;;5039622;28;86736;-49
2023/07/31 11:13:06;;;;;;;;;;;25.00;53.20;;;;;;5041642;28;88086;-51
2023/07/31 11:15:31;;;;;;;;;;;25.00;53.10;;;;;;5044397;27;89220;-49
2023/07/31 11:17:59;;;;;;;;;;;25.00;53.20;;;;;;5040382;28;88833;-50
2023/07/31 11:20:25;;;;;;;;;;;25.00;53.20;;;;;;5039491;28;88513;-50
2023/07/31 11:22:50;;;;;;;;;;;25.00;53.20;;;;;;5043157;28;88246;-53
2023/07/31 11:25:16;;;;;;;;;;;25.00;53.10;;;;;;5044430;27;87489;-49
2023/07/31 11:27:43;;;;;;;;;;;25.00;53.10;;;;;;5044412;28;88429;-49
2023/07/31 11:30:09;;;;;;;;;;;25.00;53.10;;;;;;5039930;28;87259;-49
2023/07/31 11:32:36;;;;;;;;;;;25.00;53.10;;;;;;5044093;27;87521;-50
2023/07/31 11:35:04;;;;;;;;;;;25.00;53.00;;;;;;5043781;27;88526;-50
2023/07/31 11:37:42;;;;;;;;;;;25.00;53.00;;;;;;5039266;27;87106;-51
2023/07/31 11:40:08;;;;;;;;;;;25.00;53.00;;;;;;5038639;27;87416;-49
2023/07/31 11:42:37;;;;;;;;;;;25.00;53.00;;;;;;5042449;28;90597;-52
2023/07/31 11:45:06;;;;;;;;;;;25.00;53.00;;;;;;5041264;28;87258;-48
2023/07/31 11:47:35;;;;;;;;;;;25.10;53.10;;;;;;5042865;28;88401;-50
2023/07/31 11:50:01;;;;;;;;;;;25.10;53.10;;;;;;5041210;28;87148;-49
2023/07/31 11:52:28;;;;;;;;;;;25.10;53.10;;;;;;5042831;28;89225;-51
2023/07/31 11:54:54;;;;;;;;;;;25.10;53.10;;;;;;5042925;27;87955;-51
2023/07/31 11:57:20;;;;;;;;;;;25.10;53.70;;;;;;5040325;28;88158;-50
2023/07/31 11:59:46;;;;;;;;;;;25.10;53.00;;;;;;5040292;28;86573;-48
2023/07/31 12:02:11;;;;;;;;;;;25.10;53.10;;;;;;5042323;28;88348;-53
2023/07/31 12:04:38;;;;;;;;;;;25.10;53.10;;;;;;5042149;27;87216;-53
2023/07/31 12:07:03;;;;;;;;;;;25.10;53.00;;;;;;5037017;28;88787;-48
2023/07/31 12:09:29;;;;;;;;;;;25.10;53.00;;;;;;5042719;27;87295;-49
2023/07/31 12:11:54;;;;;;;;;;;25.10;53.00;;;;;;5042708;28;87426;-49
2023/07/31 12:14:21;;;;;;;;;;;25.20;53.00;;;;;;5039545;28;88353;-51
2023/07/31 12:16:46;;;;;;;;;;;25.20;53.00;;;;;;5038670;28;87216;-51
2023/07/31 12:19:12;;;;;;;;;;;25.20;53.10;;;;;;5042629;28;87760;-50
2023/07/31 12:21:37;;;;;;;;;;;25.20;53.00;;;;;;5043959;27;88120;-51
2023/07/31 12:24:03;;;;;;;;;;;25.20;53.10;;;;;;5040293;27;87145;-49
2023/07/31 12:26:34;;;;;;;;;;;25.20;53.10;;;;;;5036537;28;88943;-51
2023/07/31 12:28:59;;;;;;;;;;;25.20;53.00;;;;;;5042970;28;88117;-48
2023/07/31 12:31:27;;;;;;;;;;;25.20;53.00;;;;;;5043322;28;89184;-50
2023/07/31 12:33:52;;;;;;;;;;;25.20;53.00;;;;;;5039086;28;89042;-52
2023/07/31 12:36:20;;;;;;;;;;;25.20;53.00;;;;;;5037626;28;87580;-52
2023/07/31 12:38:46;;;;;;;;;;;25.20;53.10;;;;;;5041970;28;87416;-49
2023/07/31 12:41:12;;;;;;;;;;;25.20;52.90;;;;;;5042099;27;87629;-49
2023/07/31 12:43:38;;;;;;;;;;;25.20;52.90;;;;;;5040382;28;87536;-48
2023/07/31 12:46:04;;;;;;;;;;;25.30;52.90;;;;;;5039242;28;87074;-50
2023/07/31 12:48:29;;;;;;;;;;;25.30;52.90;;;;;;5043230;28;87268;-50
2023/07/31 12:50:55;;;;;;;;;;;25.30;53.00;;;;;;5037561;27;87383;-49
2023/07/31 12:53:20;;;;;;;;;;;25.30;52.90;;;;;;5041900;28;87244;-51
2023/07/31 12:55:46;;;;;;;;;;;25.30;52.90;;;;;;5036316;27;88493;-49
2023/07/31 12:58:12;;;;;;;;;;;25.30;52.90;;;;;;5042141;28;88310;-48
2023/07/31 13:00:37;;;;;;;;;;;25.30;52.90;;;;;;5042114;27;88191;-48
2023/07/31 13:03:03;;;;;;;;;;;25.30;52.90;;;;;;5038854;28;88660;-51
2023/07/31 13:05:29;;;;;;;;;;;25.30;52.90;;;;;;5040434;28;87622;-51
2023/07/31 13:07:54;;;;;;;;;;;25.30;52.80;;;;;;5040140;27;87291;-49
2023/07/31 13:10:20;;;;;;;;;;;25.30;52.80;;;;;;5040929;27;88712;-52
2023/07/31 13:12:46;;;;;;;;;;;25.30;52.80;;;;;;5037492;28;87103;-51
2023/07/31 13:15:11;;;;;;;;;;;25.40;52.80;;;;;;5044966;28;87742;-49
2023/07/31 13:17:37;;;;;;;;;;;25.30;52.80;;;;;;5043210;27;87062;-54
2023/07/31 13:20:03;;;;;;;;;;;25.40;52.80;;;;;;5037618;28;88892;-52
2023/07/31 13:22:29;;;;;;;;;;;25.40;52.80;;;;;;5036074;28;87290;-53
2023/07/31 13:24:54;;;;;;;;;;;25.40;52.80;;;;;;5042453;27;87675;-48
2023/07/31 13:27:21;;;;;;;;;;;25.40;52.80;;;;;;5034689;28;87944;-56
2023/07/31 13:29:47;;;;;;;;;;;25.40;52.90;;;;;;5033258;28;87410;-59
2023/07/31 13:32:13;;;;;;;;;;;25.40;52.60;;;;;;5034441;28;88938;-59
2023/07/31 13:37:40;;;;;;;;;;;25.40;51.20;;;;;;5049808;27;80807;-61
2023/07/31 13:40:06;;;;;;;;;;;25.40;52.20;;;;;;5042920;27;80391;-53
2023/07/31 13:42:32;;;;;;;;;;;25.40;51.80;;;;;;5046197;27;80810;-57
2023/07/31 13:44:58;;;;;;;;;;;25.40;52.10;;;;;;5051927;27;80643;-47
2023/07/31 13:47:23;;;;;;;;;;;25.40;51.70;;;;;;5045834;27;80292;-53
2023/07/31 13:49:49;;;;;;;;;;;25.40;52.80;;;;;;5051177;27;81169;-58
2023/07/31 13:52:14;;;;;;;;;;;25.50;52.60;;;;;;5044357;27;81490;-59
2023/07/31 13:54:40;;;;;;;;;;;25.50;52.80;;;;;;5054121;27;80428;-49
2023/07/31 13:57:05;;;;;;;;;;;25.60;52.60;;;;;;5046044;27;80282;-53
2023/07/31 13:59:31;;;;;;;;;;;25.60;52.60;;;;;;5040664;27;80697;-52
2023/07/31 14:01:56;;;;;;;;;;;25.60;52.50;;;;;;5048226;27;82190;-51
2023/07/31 14:04:22;;;;;;;;;;;25.60;52.50;;;;;;5054025;27;81195;-48
2023/07/31 14:06:50;;;;;;;;;;;25.60;52.40;;;;;;5048548;27;80852;-49
2023/07/31 14:09:16;;;;;;;;;;;25.60;52.30;;;;;;5043859;27;82242;-48
2023/07/31 14:11:42;;;;;;;;;;;25.70;52.30;;;;;;5051489;27;81152;-47
2023/07/31 14:14:08;;;;;;;;;;;25.70;52.30;;;;;;5050662;27;80745;-48